createdAt,value
2023-01-15T00:01:04.964Z,0.40
2023-01-15T00:03:31.899Z,0.40
2023-01-15T00:06:02.071Z,0.30
2023-01-15T00:08:28.541Z,0.32
2023-01-15T00:10:56.399Z,0.47
2023-01-15T00:13:23.243Z,0.40
2023-01-15T00:15:49.577Z,0.30
2023-01-15T00:18:15.988Z,0.25
2023-01-15T00:20:42.466Z,0.32
2023-01-15T00:23:28.802Z,0.20
2023-01-15T00:26:15.082Z,0.30
2023-01-15T00:28:41.727Z,0.30
2023-01-15T00:31:08.127Z,0.30
2023-01-15T00:33:34.559Z,0.35
2023-01-15T00:36:00.873Z,0.50
2023-01-15T00:38:27.259Z,0.50
2023-01-15T00:40:53.581Z,0.40
2023-01-15T00:43:19.968Z,0.30
2023-01-15T00:45:46.307Z,0.50
2023-01-15T00:48:12.614Z,0.30
2023-01-15T00:50:40.061Z,0.50
2023-01-15T00:53:06.461Z,0.52
2023-01-15T00:55:32.853Z,0.40
2023-01-15T00:57:59.215Z,0.32
2023-01-15T01:00:25.621Z,0.32
2023-01-15T01:02:51.929Z,0.50
2023-01-15T01:05:18.293Z,0.50
2023-01-15T01:07:44.725Z,0.40
2023-01-15T01:10:11.220Z,0.50
2023-01-15T01:15:22.341Z,0.38
2023-01-15T01:17:49.200Z,0.40
2023-01-15T01:20:16.625Z,0.45
2023-01-15T01:22:43.464Z,0.50
2023-01-15T01:25:10.239Z,0.40
2023-01-15T01:27:36.578Z,0.50
2023-01-15T01:30:03.573Z,0.40
2023-01-15T01:32:29.980Z,0.32
2023-01-15T01:34:56.376Z,0.50
2023-01-15T01:37:22.794Z,0.40
2023-01-15T01:39:49.151Z,0.20
2023-01-15T01:42:16.697Z,0.50
2023-01-15T01:44:43.667Z,0.45
2023-01-15T01:47:15.738Z,0.40
2023-01-15T01:49:43.155Z,0.63
2023-01-15T01:52:13.864Z,0.30
2023-01-15T01:54:40.996Z,0.38
2023-01-15T01:57:08.520Z,0.63
2023-01-15T01:59:35.642Z,0.30
2023-01-15T02:02:02.260Z,0.50
2023-01-15T02:04:29.024Z,0.60
2023-01-15T02:06:55.486Z,0.43
2023-01-15T02:09:21.913Z,0.40
2023-01-15T02:11:49.797Z,0.32
2023-01-15T02:14:21.041Z,0.40
2023-01-15T02:16:47.448Z,0.40
2023-01-15T02:19:33.270Z,0.28
2023-01-15T02:22:18.300Z,0.35
2023-01-15T02:24:53.910Z,0.35
2023-01-15T02:30:12.814Z,0.30
2023-01-15T02:32:45.768Z,0.30
2023-01-15T02:35:21.471Z,0.30
2023-01-15T02:37:51.118Z,0.32
2023-01-15T02:40:19.515Z,0.50
2023-01-15T02:42:47.790Z,0.40
2023-01-15T02:45:15.914Z,0.30
2023-01-15T02:47:43.594Z,0.30
2023-01-15T02:50:13.188Z,0.30
2023-01-15T02:52:42.484Z,0.40
2023-01-15T02:55:12.266Z,0.20
2023-01-15T02:57:40.234Z,0.30
2023-01-15T03:00:09.212Z,0.35
2023-01-15T03:02:42.663Z,0.40
2023-01-15T03:05:11.745Z,0.30
2023-01-15T03:07:42.771Z,0.40
2023-01-15T03:10:10.098Z,0.30
2023-01-15T03:13:03.153Z,0.40
2023-01-15T03:16:09.981Z,0.45
2023-01-15T03:21:06.949Z,0.28
2023-01-15T03:23:35.187Z,0.22
2023-01-15T03:26:01.572Z,0.20
2023-01-15T03:28:31.476Z,0.30
2023-01-15T03:30:58.854Z,0.30
2023-01-15T03:33:26.535Z,0.22
2023-01-15T03:35:58.536Z,0.50
2023-01-15T03:38:29.790Z,0.30
2023-01-15T03:41:16.594Z,0.32
2023-01-15T03:43:45.693Z,0.30
2023-01-15T03:46:18.110Z,0.30
2023-01-15T03:48:48.894Z,0.22
2023-01-15T03:51:22.630Z,0.40
2023-01-15T03:53:50.789Z,0.20
2023-01-15T03:56:35.635Z,0.35
2023-01-15T03:59:01.956Z,0.28
2023-01-15T04:01:32.142Z,0.40
2023-01-15T04:03:59.694Z,0.20
2023-01-15T04:06:27.801Z,0.32
2023-01-15T04:08:54.319Z,0.30
2023-01-15T04:11:24.646Z,0.40
2023-01-15T04:13:51.655Z,0.25
2023-01-15T04:16:21.472Z,0.28
2023-01-15T04:18:47.879Z,0.20
2023-01-15T04:21:17.332Z,0.22
2023-01-15T04:23:43.950Z,0.22
2023-01-15T04:26:10.249Z,0.22
2023-01-15T04:28:36.566Z,0.20
2023-01-15T04:31:03.086Z,0.20
2023-01-15T04:33:29.562Z,0.40
2023-01-15T04:35:59.155Z,0.30
2023-01-15T04:38:25.595Z,0.32
2023-01-15T04:41:10.356Z,0.20
2023-01-15T04:43:55.326Z,0.30
2023-01-15T04:46:25.074Z,0.30
2023-01-15T04:48:51.901Z,0.20
2023-01-15T04:51:18.341Z,0.30
2023-01-15T04:53:47.441Z,0.20
2023-01-15T04:56:13.844Z,0.30
2023-01-15T04:58:40.214Z,0.20
2023-01-15T05:01:24.857Z,0.20
2023-01-15T05:03:51.232Z,0.20
2023-01-15T05:06:18.526Z,0.30
2023-01-15T05:08:45.311Z,0.10
2023-01-15T05:11:14.860Z,0.10
2023-01-15T05:13:41.285Z,0.20
2023-01-15T05:16:09.732Z,0.30
2023-01-15T05:18:36.116Z,0.20
2023-01-15T05:21:02.461Z,0.20
2023-01-15T05:23:28.831Z,0.10
2023-01-15T05:25:55.223Z,0.30
2023-01-15T05:28:21.536Z,0.17
2023-01-15T05:30:47.929Z,0.20
2023-01-15T05:33:14.475Z,0.20
2023-01-15T05:35:41.041Z,0.20
2023-01-15T05:38:10.354Z,0.20
2023-01-15T05:40:36.681Z,0.10
2023-01-15T05:43:03.074Z,0.10
2023-01-15T05:45:29.427Z,0.20
2023-01-15T05:47:55.822Z,0.10
2023-01-15T05:50:22.239Z,0.20
2023-01-15T05:52:48.600Z,0.10
2023-01-15T05:55:14.981Z,0.10
2023-01-15T05:57:41.388Z,0.20
2023-01-15T06:00:08.238Z,0.20
2023-01-15T06:02:34.701Z,0.20
2023-01-15T06:05:01.035Z,0.28
2023-01-15T06:07:27.451Z,0.20
2023-01-15T06:09:53.866Z,0.47
2023-01-15T06:12:23.061Z,0.25
2023-01-15T06:14:49.438Z,0.20
2023-01-15T06:17:16.183Z,0.20
2023-01-15T06:19:42.649Z,0.10
2023-01-15T06:22:11.113Z,0.20
2023-01-15T06:24:38.799Z,0.30
2023-01-15T06:27:05.269Z,0.40
2023-01-15T06:29:31.732Z,0.30
2023-01-15T06:31:58.075Z,0.35
2023-01-15T06:34:24.429Z,0.30
2023-01-15T06:36:50.739Z,0.30
2023-01-15T06:39:17.146Z,0.40
2023-01-15T06:42:02.202Z,0.40
2023-01-15T06:44:47.020Z,0.68
2023-01-15T06:47:20.822Z,0.60
2023-01-15T06:49:47.919Z,0.63
2023-01-15T06:52:14.237Z,0.77
2023-01-15T06:54:40.640Z,0.77
2023-01-15T06:57:07.182Z,0.52
2023-01-15T06:59:33.653Z,0.73
2023-01-15T07:02:00.617Z,0.75
2023-01-15T07:04:27.098Z,0.93
2023-01-15T07:06:53.456Z,1.85
2023-01-15T07:09:19.856Z,1.15
2023-01-15T07:11:49.558Z,1.50
2023-01-15T07:14:20.132Z,1.20
2023-01-15T07:16:46.519Z,1.30
2023-01-15T07:19:13.239Z,1.73
2023-01-15T07:21:39.725Z,1.50
2023-01-15T07:24:06.265Z,1.58
2023-01-15T07:26:32.798Z,1.50
2023-01-15T07:28:59.167Z,1.75
2023-01-15T07:31:25.585Z,2.00
2023-01-15T07:33:52.060Z,2.05
2023-01-15T07:36:18.372Z,2.90
2023-01-15T07:38:44.702Z,2.97
2023-01-15T07:41:29.963Z,3.88
2023-01-15T07:44:14.725Z,2.10
2023-01-15T07:46:59.784Z,2.80
2023-01-15T07:49:44.631Z,2.73
2023-01-15T07:52:13.968Z,2.17
2023-01-15T07:54:40.282Z,2.30
2023-01-15T07:57:07.326Z,2.38
2023-01-15T07:59:33.766Z,1.77
2023-01-15T08:02:00.238Z,1.80
2023-01-15T08:04:26.776Z,1.92
2023-01-15T08:06:53.198Z,1.50
2023-01-15T08:09:19.587Z,1.52
2023-01-15T08:12:04.583Z,1.50
2023-01-15T08:14:49.819Z,1.45
2023-01-15T08:17:16.201Z,1.75
2023-01-15T08:19:42.546Z,1.90
2023-01-15T08:22:10.249Z,1.90
2023-01-15T08:24:36.578Z,2.10
2023-01-15T08:27:03.079Z,2.50
2023-01-15T08:29:29.662Z,2.47
2023-01-15T08:31:56.036Z,2.33
2023-01-15T08:34:22.485Z,1.80
2023-01-15T08:36:49.787Z,2.05
2023-01-15T08:39:16.186Z,2.20
2023-01-15T08:41:42.579Z,1.95
2023-01-15T08:44:09.607Z,1.75
2023-01-15T08:46:35.921Z,1.85
2023-01-15T08:49:02.312Z,1.85
2023-01-15T08:51:28.772Z,2.08
2023-01-15T08:53:55.116Z,1.63
2023-01-15T08:56:21.448Z,1.80
2023-01-15T08:58:48.850Z,1.42
2023-01-15T09:01:16.241Z,1.50
2023-01-15T09:03:42.931Z,1.00
2023-01-15T09:06:11.048Z,1.02
2023-01-15T09:08:37.708Z,1.15
2023-01-15T09:11:04.880Z,0.90
2023-01-15T09:13:31.649Z,1.10
2023-01-15T09:16:02.006Z,0.70
2023-01-15T09:18:28.790Z,0.57
2023-01-15T09:20:55.205Z,0.60
2023-01-15T09:23:21.594Z,0.50
2023-01-15T09:25:52.974Z,0.50
2023-01-15T09:28:19.483Z,0.60
2023-01-15T09:30:45.959Z,0.50
2023-01-15T09:33:12.538Z,0.50
2023-01-15T09:35:39.046Z,0.40
2023-01-15T09:38:05.456Z,0.40
2023-01-15T09:40:46.583Z,0.40
2023-01-15T09:43:15.883Z,0.30
2023-01-15T09:45:45.234Z,0.40
2023-01-15T09:48:18.364Z,0.32
2023-01-15T09:51:07.502Z,0.40
2023-01-15T09:53:33.856Z,0.43
2023-01-15T09:56:01.835Z,0.40
2023-01-15T09:58:36.576Z,0.40
2023-01-15T10:01:05.458Z,0.50
2023-01-15T10:03:40.777Z,0.43
2023-01-15T10:06:13.191Z,0.40
2023-01-15T10:08:43.020Z,0.32
2023-01-15T10:11:15.531Z,0.32
2023-01-15T10:13:50.687Z,0.30
2023-01-15T10:16:24.877Z,0.40
2023-01-15T10:18:51.558Z,0.30
2023-01-15T10:21:44.644Z,0.20
2023-01-15T10:24:11.201Z,0.32
2023-01-15T10:26:56.683Z,0.60
2023-01-15T10:29:29.286Z,0.50
2023-01-15T10:32:01.903Z,0.70
2023-01-15T10:34:31.051Z,0.30
2023-01-15T10:37:10.955Z,0.40
2023-01-15T10:39:40.094Z,0.30
2023-01-15T10:42:23.033Z,0.30
2023-01-15T10:44:49.388Z,0.40
2023-01-15T10:47:17.983Z,0.30
2023-01-15T10:49:45.185Z,0.10
2023-01-15T10:52:20.690Z,0.88
2023-01-15T10:57:16.487Z,0.30
2023-01-15T10:59:48.774Z,0.30
2023-01-15T11:02:18.082Z,0.30
2023-01-15T11:04:45.727Z,0.35
2023-01-15T11:07:13.659Z,0.30
2023-01-15T11:09:41.554Z,0.30
2023-01-15T11:12:20.050Z,0.30
2023-01-15T11:15:05.339Z,0.40
2023-01-15T11:17:54.009Z,0.40
2023-01-15T11:20:23.156Z,0.40
2023-01-15T11:22:49.759Z,0.38
2023-01-15T11:25:25.478Z,0.80
2023-01-15T11:27:51.983Z,0.40
2023-01-15T11:30:26.072Z,0.30
2023-01-15T11:32:56.734Z,0.30
2023-01-15T11:35:23.075Z,0.30
2023-01-15T11:37:49.544Z,0.40
2023-01-15T11:40:25.822Z,0.40
2023-01-15T11:43:11.156Z,0.38
2023-01-15T11:46:09.188Z,0.30
2023-01-15T11:49:04.520Z,0.30
2023-01-15T11:51:32.872Z,0.40
2023-01-15T11:54:02.571Z,0.52
2023-01-15T11:56:31.292Z,0.40
2023-01-15T11:58:58.808Z,0.30
2023-01-15T12:01:35.377Z,0.32
2023-01-15T12:04:04.652Z,0.55
2023-01-15T12:06:31.648Z,0.40
2023-01-15T12:09:16.897Z,0.40
2023-01-15T12:11:50.339Z,0.32
2023-01-15T12:14:28.981Z,0.45
2023-01-15T12:16:58.422Z,0.43
2023-01-15T12:19:30.900Z,0.25
2023-01-15T12:22:10.197Z,0.30
2023-01-15T12:24:45.345Z,0.22
2023-01-15T12:27:17.853Z,0.30
2023-01-15T12:29:49.181Z,0.30
2023-01-15T12:32:18.469Z,0.30
2023-01-15T12:34:44.749Z,0.20
2023-01-15T12:37:16.035Z,0.30
2023-01-15T12:39:51.855Z,0.20
2023-01-15T12:42:39.699Z,0.10
2023-01-15T12:45:08.662Z,0.30
2023-01-15T12:47:34.989Z,0.40
2023-01-15T12:50:06.526Z,0.30
2023-01-15T12:52:38.326Z,0.20
2023-01-15T12:55:07.692Z,0.30
2023-01-15T12:57:35.523Z,0.40
2023-01-15T13:00:13.879Z,0.20
2023-01-15T13:02:52.116Z,0.20
2023-01-15T13:05:38.892Z,0.25
2023-01-15T13:08:10.618Z,0.25
2023-01-15T13:10:39.153Z,0.40
2023-01-15T13:13:19.570Z,0.30
2023-01-15T13:15:53.828Z,0.40
2023-01-15T13:18:28.706Z,0.30
2023-01-15T13:20:55.928Z,0.32
2023-01-15T13:23:31.250Z,0.20
2023-01-15T13:26:06.441Z,0.20
2023-01-15T13:28:51.351Z,0.22
2023-01-15T13:31:17.677Z,0.30
2023-01-15T13:33:46.275Z,0.20
2023-01-15T13:36:16.293Z,0.38
2023-01-15T13:38:45.446Z,0.35
2023-01-15T13:41:14.764Z,0.20
2023-01-15T13:43:42.807Z,0.20
2023-01-15T13:46:11.689Z,0.25
2023-01-15T13:48:45.336Z,0.32
2023-01-15T13:51:24.000Z,0.30
2023-01-15T13:53:50.614Z,0.30
2023-01-15T13:56:26.083Z,0.20
2023-01-15T13:58:53.588Z,0.10
2023-01-15T14:01:20.693Z,0.28
2023-01-15T14:03:56.443Z,0.40
2023-01-15T14:06:22.870Z,0.17
2023-01-15T14:08:51.636Z,0.35
2023-01-15T14:11:36.982Z,0.20
2023-01-15T14:14:23.610Z,0.25
2023-01-15T14:16:55.665Z,0.30
2023-01-15T14:19:25.158Z,0.30
2023-01-15T14:21:51.535Z,0.30
2023-01-15T14:24:36.997Z,0.32
2023-01-15T14:27:26.310Z,0.28
2023-01-15T14:30:11.582Z,0.30
2023-01-15T14:32:42.161Z,0.50
2023-01-15T14:35:12.700Z,0.40
2023-01-15T14:37:45.020Z,0.30
2023-01-15T14:40:18.846Z,0.30
2023-01-15T14:43:02.528Z,0.40
2023-01-15T14:45:36.123Z,0.40
2023-01-15T14:48:19.414Z,0.30
2023-01-15T14:50:46.411Z,0.30
2023-01-15T14:53:13.453Z,0.20
2023-01-15T14:55:43.709Z,0.73
2023-01-15T14:58:34.972Z,0.40
2023-01-15T15:01:04.934Z,0.50
2023-01-15T15:03:35.535Z,0.38
2023-01-15T15:06:02.345Z,0.30
2023-01-15T15:08:31.042Z,0.60
2023-01-15T15:10:58.265Z,0.70
2023-01-15T15:13:29.797Z,0.40
2023-01-15T15:16:14.201Z,0.40
2023-01-15T15:19:00.298Z,0.73
2023-01-15T15:21:31.890Z,0.45
2023-01-15T15:24:04.249Z,0.50
2023-01-15T15:26:35.475Z,0.40
2023-01-15T15:29:04.646Z,0.40
2023-01-15T15:31:31.942Z,0.40
2023-01-15T15:33:58.955Z,0.50
2023-01-15T15:36:27.157Z,0.88
2023-01-15T15:38:54.325Z,0.50
2023-01-15T15:41:42.319Z,0.55
2023-01-15T15:44:32.906Z,0.60
2023-01-15T15:47:17.955Z,0.43
2023-01-15T15:49:44.298Z,0.40
2023-01-15T15:52:27.924Z,0.65
2023-01-15T15:54:59.060Z,0.40
2023-01-15T15:57:26.855Z,0.70
2023-01-15T15:59:53.298Z,0.50
2023-01-15T16:02:21.741Z,0.57
2023-01-15T16:04:52.073Z,0.47
2023-01-15T16:07:29.687Z,0.50
2023-01-15T16:10:14.476Z,0.40
2023-01-15T16:12:50.509Z,0.70
2023-01-15T16:15:19.471Z,0.50
2023-01-15T16:17:46.381Z,0.63
2023-01-15T16:20:14.008Z,0.40
2023-01-15T16:22:52.600Z,0.50
2023-01-15T16:25:27.292Z,0.40
2023-01-15T16:27:53.711Z,0.60
2023-01-15T16:30:20.618Z,0.70
2023-01-15T16:32:48.591Z,0.70
2023-01-15T16:35:14.944Z,0.50
2023-01-15T16:37:41.591Z,0.73
2023-01-15T16:40:10.477Z,0.52
2023-01-15T16:42:40.021Z,0.60
2023-01-15T16:45:15.036Z,0.65
2023-01-15T16:48:01.034Z,0.38
2023-01-15T16:50:29.138Z,0.60
2023-01-15T16:52:56.787Z,0.57
2023-01-15T16:55:41.939Z,0.70
2023-01-15T16:58:11.292Z,0.60
2023-01-15T17:00:38.002Z,0.80
2023-01-15T17:03:13.282Z,0.68
2023-01-15T17:05:39.946Z,0.55
2023-01-15T17:08:14.793Z,0.60
2023-01-15T17:10:51.496Z,0.68
2023-01-15T17:13:19.379Z,0.70
2023-01-15T17:15:46.111Z,0.70
2023-01-15T17:18:20.244Z,0.95
2023-01-15T17:20:46.746Z,0.77
2023-01-15T17:23:13.507Z,0.80
2023-01-15T17:25:39.903Z,0.90
2023-01-15T17:28:06.510Z,0.73
2023-01-15T17:30:33.415Z,0.70
2023-01-15T17:33:00.689Z,0.70
2023-01-15T17:35:27.146Z,0.65
2023-01-15T17:37:56.464Z,0.68
2023-01-15T17:40:23.113Z,0.70
2023-01-15T17:42:49.724Z,0.50
2023-01-15T17:45:20.911Z,0.80
2023-01-15T17:47:47.529Z,0.63
2023-01-15T17:50:14.669Z,0.70
2023-01-15T17:52:41.369Z,0.50
2023-01-15T17:55:28.240Z,0.60
2023-01-15T17:58:13.635Z,0.55
2023-01-15T18:00:58.636Z,0.80
2023-01-15T18:03:43.560Z,0.50
2023-01-15T18:06:11.311Z,0.47
2023-01-15T18:08:39.337Z,0.45
2023-01-15T18:11:05.781Z,0.60
2023-01-15T18:13:32.349Z,0.80
2023-01-15T18:15:58.691Z,0.50
2023-01-15T18:18:25.073Z,0.43
2023-01-15T18:20:51.587Z,0.60
2023-01-15T18:23:20.429Z,0.50
2023-01-15T18:25:47.449Z,0.82
2023-01-15T18:28:14.001Z,0.80
2023-01-15T18:30:45.368Z,0.65
2023-01-15T18:33:11.910Z,0.40
2023-01-15T18:35:38.357Z,0.63
2023-01-15T18:38:04.908Z,0.63
2023-01-15T18:40:31.748Z,0.68
2023-01-15T18:43:16.947Z,0.65
2023-01-15T18:46:05.532Z,0.80
2023-01-15T18:48:31.990Z,0.70
2023-01-15T18:51:00.143Z,0.65
2023-01-15T18:53:26.530Z,0.60
2023-01-15T18:55:52.910Z,0.60
2023-01-15T18:58:19.531Z,0.70
2023-01-15T19:00:45.858Z,0.45
2023-01-15T19:03:12.444Z,0.65
2023-01-15T19:05:38.759Z,0.50
2023-01-15T19:08:05.213Z,0.80
2023-01-15T19:10:31.671Z,0.70
2023-01-15T19:12:58.384Z,0.82
2023-01-15T19:15:43.364Z,0.75
2023-01-15T19:18:29.423Z,0.60
2023-01-15T19:20:55.786Z,0.75
2023-01-15T19:23:22.167Z,0.80
2023-01-15T19:25:49.617Z,0.80
2023-01-15T19:28:17.851Z,0.85
2023-01-15T19:31:05.530Z,0.73
2023-01-15T19:33:32.663Z,0.60
2023-01-15T19:35:59.058Z,0.90
2023-01-15T19:38:25.471Z,0.80
2023-01-15T19:40:51.841Z,0.88
2023-01-15T19:43:37.089Z,0.93
2023-01-15T19:46:22.332Z,0.80
2023-01-15T19:49:07.761Z,0.77
2023-01-15T19:51:52.507Z,0.73
2023-01-15T19:54:38.866Z,0.90
2023-01-15T19:57:05.279Z,1.08
2023-01-15T19:59:31.895Z,1.02
2023-01-15T20:01:58.357Z,0.93
2023-01-15T20:04:24.684Z,1.40
2023-01-15T20:06:53.266Z,0.88
2023-01-15T20:09:20.219Z,0.80
2023-01-15T20:12:05.264Z,0.40
2023-01-15T20:14:31.749Z,0.67
2023-01-15T20:16:58.097Z,0.98
2023-01-15T20:19:24.401Z,0.75
2023-01-15T20:21:50.719Z,1.25
2023-01-15T20:24:17.161Z,0.68
2023-01-15T20:26:55.168Z,0.93
2023-01-15T20:29:27.150Z,1.02
2023-01-15T20:31:53.568Z,0.60
2023-01-15T20:34:20.073Z,0.80
2023-01-15T20:36:46.543Z,0.82
2023-01-15T20:39:15.146Z,0.70
2023-01-15T20:42:00.292Z,1.00
2023-01-15T20:44:45.527Z,0.75
2023-01-15T20:47:30.635Z,0.80
2023-01-15T20:49:56.982Z,0.70
2023-01-15T20:52:23.314Z,1.00
2023-01-15T20:54:50.580Z,0.80
2023-01-15T20:57:16.898Z,0.70
2023-01-15T20:59:43.252Z,0.63
2023-01-15T21:02:11.199Z,0.60
2023-01-15T21:04:37.723Z,0.80
2023-01-15T21:07:04.268Z,0.60
2023-01-15T21:09:30.899Z,0.80
2023-01-15T21:11:57.334Z,0.70
2023-01-15T21:14:23.732Z,0.60
2023-01-15T21:16:51.614Z,0.80
2023-01-15T21:19:18.270Z,0.70
2023-01-15T21:21:44.615Z,0.80
2023-01-15T21:24:11.006Z,0.73
2023-01-15T21:26:37.381Z,0.75
2023-01-15T21:29:03.765Z,1.38
2023-01-15T21:31:30.152Z,0.63
2023-01-15T21:33:56.976Z,0.70
2023-01-15T21:36:24.369Z,0.85
2023-01-15T21:38:51.586Z,0.60
2023-01-15T21:41:17.992Z,0.77
2023-01-15T21:44:02.864Z,0.90
2023-01-15T21:46:29.656Z,0.90
2023-01-15T21:48:56.705Z,0.65
2023-01-15T21:51:23.447Z,0.52
2023-01-15T21:53:50.178Z,0.70
2023-01-15T21:56:16.580Z,0.63
2023-01-15T21:58:42.963Z,0.60
2023-01-15T22:01:14.165Z,0.60
2023-01-15T22:03:40.908Z,0.65
2023-01-15T22:06:08.225Z,0.60
2023-01-15T22:08:34.705Z,0.80
2023-01-15T22:11:10.619Z,0.70
2023-01-15T22:13:37.652Z,0.45
2023-01-15T22:16:04.461Z,0.65
2023-01-15T22:18:31.897Z,0.70
2023-01-15T22:20:58.910Z,0.70
2023-01-15T22:23:25.341Z,0.60
2023-01-15T22:25:51.965Z,0.73
2023-01-15T22:28:18.295Z,1.20
2023-01-15T22:30:44.828Z,0.75
2023-01-15T22:33:11.559Z,0.60
2023-01-15T22:35:37.879Z,1.00
2023-01-15T22:38:04.230Z,0.90
2023-01-15T22:40:30.679Z,0.80
2023-01-15T22:42:57.304Z,0.90
2023-01-15T22:45:24.315Z,0.80
2023-01-15T22:47:50.953Z,0.65
2023-01-15T22:50:17.451Z,0.73
2023-01-15T22:52:43.996Z,0.95
2023-01-15T22:55:10.455Z,0.80
2023-01-15T22:57:36.814Z,1.10
2023-01-15T23:00:03.900Z,0.90
2023-01-15T23:02:49.008Z,0.75
2023-01-15T23:05:15.351Z,0.85
2023-01-15T23:07:41.788Z,0.80
2023-01-15T23:10:09.154Z,0.60
2023-01-15T23:12:35.700Z,0.90
2023-01-15T23:15:02.034Z,0.80
2023-01-15T23:17:28.494Z,1.00
2023-01-15T23:19:54.848Z,0.88
2023-01-15T23:22:21.690Z,0.75
2023-01-15T23:24:48.024Z,0.90
2023-01-15T23:27:14.402Z,0.70
2023-01-15T23:29:40.699Z,0.88
2023-01-15T23:32:07.099Z,1.08
2023-01-15T23:34:33.456Z,0.65
2023-01-15T23:36:59.863Z,0.68
2023-01-15T23:39:27.388Z,0.70
2023-01-15T23:42:12.332Z,0.80
2023-01-15T23:44:57.287Z,0.70
2023-01-15T23:47:26.253Z,0.80
2023-01-15T23:49:52.633Z,0.80
2023-01-15T23:52:19.190Z,0.70
2023-01-15T23:54:45.592Z,0.80
2023-01-15T23:57:11.945Z,0.80
2023-01-15T23:59:38.342Z,0.90
